Linn Creek, MO (65052)

13:22 CDT le 02 août 2015 (GMT -0500)
Near Big Surf | | Change Station
CLOSE
Current Station
Stations météorologiques personnelles
Location: Linn Creek, MO
Altitude: 902 ft
Stations météo à proximité

Alt. 902 ft 38.07 °N, 92.69 °W | Updated 1 second ago

Ciel dégagé
Ciel dégagé
89.1 ° F
Paraît 96 ° F
N
0.2
Vent Variable Vent de SSO
Gusts 2.5 mph

Aujourd'hui
Haut(e) -- | Bas -- ° F
--% Risque de précip.
Hier
Haut(e) -- | Bas -- ° F
Precip. -- pouce
6:14 AM 8:19 PM
Lune gibbeuse décroissante, 92% visible
Pression 29.94 pouce
Visibilité 10.0 Miles terrestres
Nuages Ciel dégagé
indice de chaleur 96 ° F
Point de rosée 72 ° F
Humidité 57%
Précipitations 0.00 pouce
Profondeur de la couche neigeuse Non disponible.
UV 1.0 sur 12
Pollen 7.50 sur 12
Qualité de l'air Non disponible.
Flu Activity Non disponible.
METAR KAIZ 021815Z AUTO 26008KT 10SM CLR 33/19 A2994 RMK AO1

More Conditions Fewer Conditions

Pression 29.94 pouce
Visibilité 10.0 Miles terrestres
Nuages Ciel dégagé
indice de chaleur 96 ° F
Point de rosée 72 ° F
Humidité 57%
Précipitations 0.00 pouce
Profondeur de la couche neigeuse Non disponible.
UV 1.0 sur 12
Pollen 7.50 sur 12
Qualité de l'air Non disponible.
Flu Activity Non disponible.
METAR KAIZ 021815Z AUTO 26008KT 10SM CLR 33/19 A2994 RMK AO1

More Conditions Fewer Conditions

10-Day Weather Forecast

×

Almanac

Astronomie

Aug. 02, 2015 Lever Coucher
Temps réel
Crépuscule civil
Crépuscule nautique
Crépuscule astronomique
Lune
Durée de lumière visible
Longueur du jour
Tomorrow will be .
, % of the Moon is Illuminated

Extrêmes aujourd'hui

State Highs State Lows

Community

WunderPhotos

Upload Photos

1,843,333 Photos téléchargées !

WunderBlogs® & News

Nearby

Qualité de l'air

  Qualité de l'air Indice de la qualité de l'air Polluant
Not available.

Épaisseur de neige

Station Depth Altitude

Activité sismique

Ville Distance Mag. Time & Date
Minimum magnitude displayed is 2.5.

Températures des eaux côtières

Lieu Température

Stations

Stations météo à proximité

Emplacement de la station Température Refroidissement éolien Point de rosée Humidité Vent Precip. Alt. Mise à jour Type